Presque Isle, MI

5:30 PM EDT on April 01, 2015 (GMT -0400)
Lotus Lake | | Change Station
CLOSE
Current Station
Personal Weather Station
Location: Presque Isle, MI
Elevation: 617 ft
Nearby Weather Stations

Elev 617 ft 45.30 °N, 83.48 °W | Updated 11 minutes ago

Clear
Clear
34.9 °F
Feels Like 24 °F
N
18.6
Wind Variable Wind from SE

Today
High -- | Low -- °F
--% Chance of Precip.
Yesterday
High -- | Low -- °F
Precip. -- in
7:14 AM 8:01 PM
Waxing Gibbous, 94% visible
Pressure 29.99 in
Visibility 10.0 miles
Clouds Mostly Cloudy 9500 ft
Mostly Cloudy 12000 ft
Windchill 24 °F
Dew Point 28 °F
Humidity 77%
Rainfall 0.00 in
Snow Depth Not available.
UV 2 out of 12
Pollen 3.30 out of 12
Air Quality Not available.
Flu Activity Not available.
METAR KPZQ 012114Z AUTO 14012KT 10SM BKN095 BKN120 09/M01 A2999 RMK AO2 T00921012

More Conditions Fewer Conditions

Pressure 29.99 in
Visibility 10.0 miles
Clouds Mostly Cloudy 9500 ft
Mostly Cloudy 12000 ft
Windchill 24 °F
Dew Point 28 °F
Humidity 77%
Rainfall 0.00 in
Snow Depth Not available.
UV 2 out of 12
Pollen 3.30 out of 12
Air Quality Not available.
Flu Activity Not available.
METAR KPZQ 012114Z AUTO 14012KT 10SM BKN095 BKN120 09/M01 A2999 RMK AO2 T00921012

More Conditions Fewer Conditions

Nowcast | as of 5:00 PM EDT on April 1, 2015

At 6 PM...mostly cloudy. Temperature 43. Southeast winds 10 mph. At 8 PM...rain likely. Temperature 44. Southeast winds 11 mph. At 10 PM...rain likely. Temperature 42. Southeast winds 9 mph. At 12 am...rain likely. Temperature 41. Southeast winds 9 mph.

×

10-Day Weather Forecast

Almanac

Astronomy

Apr. 01, 2015 Rise Set
Actual Time
Civil Twilight
Nautical Twilight
Astronomical Twilight
Moon
Length of Visible Light
Length of Day
Tomorrow will be .
, % of the Moon is Illuminated

Today's Extremes

State Highs State Lows

Community

WunderPhotos

Upload Photos

1,810,090 photos uploaded!

WunderBlogs® & News

Nearby

Air Quality

  Air Quality AQ Index Pollutant
Not available.

Snow Depth

Station Depth Elevation

Earthquake Activity

City Distance Mag. Time & Date
Minimum magnitude displayed is 2.5.

Coastal Water Temperatures

Place Temperature

Stations

Nearby Weather Stations

Station Location Temp. Windchill Dew Point Humidity Wind Precip. Elev Updated Type